Weather at Fumigaciones González Airport

Public forecast

Using degrees Celsius for public forecast. Weather courtesy of forecast.io.

Closest aviation weather report (METAR) to Fumigaciones González Airport

Closest report is Rosario Islas Malvinas International Airport, 34.2 nm (63.3 km) SSE.

2024/05/28 12:00 (retrieved 54 minutes ago)

SAAR 281200Z 22003KT CAVOK 03/01 Q1028

Closest aviation forecast (TAF) to Fumigaciones González Airport

Closest forecast is Rosario Islas Malvinas International Airport, 34.2 nm (63.3 km) SSE.

2024/05/28 12:03 (retrieved 51 minutes ago)

TAF TAF SAAR 281100Z 2812/2912 VRB03KT CAVOK TX16/2818Z TN01/2912Z PROB30 TEMPO 2812/2814 3000 BR BECMG 2901/2903 36005KT BKN025